sensor_id;sensor_type;location;lat;lon;timestamp;P1;durP1;ratioP1;P2;durP2;ratioP2
76121;SDS011;70471;53.200;6.080;2024-01-30T00:03:20;1.98;;;1.70;;
76121;SDS011;70471;53.200;6.080;2024-01-30T00:08:12;1.70;;;1.60;;
76121;SDS011;70471;53.200;6.080;2024-01-30T00:13:05;1.67;;;1.48;;
76121;SDS011;70471;53.200;6.080;2024-01-30T00:17:57;2.33;;;1.88;;
76121;SDS011;70471;53.200;6.080;2024-01-30T00:22:49;2.03;;;1.73;;
76121;SDS011;70471;53.200;6.080;2024-01-30T00:27:41;2.35;;;1.75;;
76121;SDS011;70471;53.200;6.080;2024-01-30T00:32:34;2.30;;;1.73;;
76121;SDS011;70471;53.200;6.080;2024-01-30T00:37:26;3.20;;;1.98;;
76121;SDS011;70471;53.200;6.080;2024-01-30T00:42:19;2.95;;;1.92;;
76121;SDS011;70471;53.200;6.080;2024-01-30T00:47:11;2.53;;;1.90;;
76121;SDS011;70471;53.200;6.080;2024-01-30T00:52:05;2.88;;;2.20;;
76121;SDS011;70471;53.200;6.080;2024-01-30T00:56:57;2.72;;;2.15;;
76121;SDS011;70471;53.200;6.080;2024-01-30T01:01:49;1.60;;;1.50;;
76121;SDS011;70471;53.200;6.080;2024-01-30T01:06:41;2.25;;;1.85;;
76121;SDS011;70471;53.200;6.080;2024-01-30T01:11:35;2.85;;;2.00;;
76121;SDS011;70471;53.200;6.080;2024-01-30T01:16:28;1.90;;;1.67;;
76121;SDS011;70471;53.200;6.080;2024-01-30T01:21:20;2.92;;;2.25;;
76121;SDS011;70471;53.200;6.080;2024-01-30T01:26:13;2.22;;;1.95;;
76121;SDS011;70471;53.200;6.080;2024-01-30T01:31:06;3.20;;;2.05;;
76121;SDS011;70471;53.200;6.080;2024-01-30T01:35:58;2.67;;;1.92;;
76121;SDS011;70471;53.200;6.080;2024-01-30T01:40:52;2.33;;;1.90;;
76121;SDS011;70471;53.200;6.080;2024-01-30T01:45:44;3.15;;;2.17;;
76121;SDS011;70471;53.200;6.080;2024-01-30T01:50:38;2.45;;;1.90;;
76121;SDS011;70471;53.200;6.080;2024-01-30T01:55:31;3.58;;;2.00;;
76121;SDS011;70471;53.200;6.080;2024-01-30T02:00:23;2.83;;;2.10;;
76121;SDS011;70471;53.200;6.080;2024-01-30T02:05:16;3.17;;;2.20;;
76121;SDS011;70471;53.200;6.080;2024-01-30T02:10:10;2.28;;;1.90;;
76121;SDS011;70471;53.200;6.080;2024-01-30T02:15:02;2.78;;;1.90;;
76121;SDS011;70471;53.200;6.080;2024-01-30T02:19:55;2.70;;;2.00;;
76121;SDS011;70471;53.200;6.080;2024-01-30T02:24:48;3.67;;;1.88;;
76121;SDS011;70471;53.200;6.080;2024-01-30T02:29:40;2.55;;;2.05;;
76121;SDS011;70471;53.200;6.080;2024-01-30T02:34:32;2.72;;;1.88;;
76121;SDS011;70471;53.200;6.080;2024-01-30T02:39:24;2.58;;;1.95;;
76121;SDS011;70471;53.200;6.080;2024-01-30T02:44:18;2.33;;;1.85;;
76121;SDS011;70471;53.200;6.080;2024-01-30T02:49:10;2.45;;;2.03;;
76121;SDS011;70471;53.200;6.080;2024-01-30T02:54:01;3.00;;;1.92;;
76121;SDS011;70471;53.200;6.080;2024-01-30T02:58:53;3.10;;;2.58;;
76121;SDS011;70471;53.200;6.080;2024-01-30T03:03:46;2.53;;;2.10;;
76121;SDS011;70471;53.200;6.080;2024-01-30T03:08:39;2.55;;;1.83;;
76121;SDS011;70471;53.200;6.080;2024-01-30T03:13:30;2.33;;;1.75;;
76121;SDS011;70471;53.200;6.080;2024-01-30T03:18:22;3.22;;;2.25;;
76121;SDS011;70471;53.200;6.080;2024-01-30T03:23:16;3.35;;;2.03;;
76121;SDS011;70471;53.200;6.080;2024-01-30T03:28:08;1.83;;;1.60;;
76121;SDS011;70471;53.200;6.080;2024-01-30T03:32:59;2.60;;;1.63;;
76121;SDS011;70471;53.200;6.080;2024-01-30T03:37:51;2.47;;;2.10;;
76121;SDS011;70471;53.200;6.080;2024-01-30T03:42:45;3.00;;;2.03;;
76121;SDS011;70471;53.200;6.080;2024-01-30T03:47:37;3.65;;;1.90;;
76121;SDS011;70471;53.200;6.080;2024-01-30T03:52:29;2.60;;;1.83;;
76121;SDS011;70471;53.200;6.080;2024-01-30T03:57:21;2.67;;;2.10;;
76121;SDS011;70471;53.200;6.080;2024-01-30T04:02:14;2.53;;;1.90;;
76121;SDS011;70471;53.200;6.080;2024-01-30T04:07:06;2.00;;;1.63;;
76121;SDS011;70471;53.200;6.080;2024-01-30T04:11:58;2.83;;;2.00;;
76121;SDS011;70471;53.200;6.080;2024-01-30T04:16:50;1.80;;;1.70;;
76121;SDS011;70471;53.200;6.080;2024-01-30T04:21:43;2.20;;;1.70;;
76121;SDS011;70471;53.200;6.080;2024-01-30T04:26:35;2.67;;;2.15;;
76121;SDS011;70471;53.200;6.080;2024-01-30T04:31:27;3.10;;;1.60;;
76121;SDS011;70471;53.200;6.080;2024-01-30T04:36:19;1.92;;;1.58;;
76121;SDS011;70471;53.200;6.080;2024-01-30T04:41:13;2.33;;;1.70;;
76121;SDS011;70471;53.200;6.080;2024-01-30T04:46:04;2.17;;;1.77;;
76121;SDS011;70471;53.200;6.080;2024-01-30T04:50:56;2.20;;;1.73;;
76121;SDS011;70471;53.200;6.080;2024-01-30T04:55:53;2.08;;;1.70;;
76121;SDS011;70471;53.200;6.080;2024-01-30T05:00:46;3.17;;;1.90;;
76121;SDS011;70471;53.200;6.080;2024-01-30T05:05:41;2.10;;;1.67;;
76121;SDS011;70471;53.200;6.080;2024-01-30T05:10:33;1.85;;;1.70;;
76121;SDS011;70471;53.200;6.080;2024-01-30T05:15:26;2.00;;;1.70;;
76121;SDS011;70471;53.200;6.080;2024-01-30T05:20:19;3.05;;;1.95;;
76121;SDS011;70471;53.200;6.080;2024-01-30T05:25:12;2.00;;;1.70;;
76121;SDS011;70471;53.200;6.080;2024-01-30T05:30:05;2.28;;;1.77;;
76121;SDS011;70471;53.200;6.080;2024-01-30T05:34:58;3.40;;;2.00;;
76121;SDS011;70471;53.200;6.080;2024-01-30T05:39:51;2.88;;;1.95;;
76121;SDS011;70471;53.200;6.080;2024-01-30T05:44:43;1.77;;;1.58;;
76121;SDS011;70471;53.200;6.080;2024-01-30T05:49:35;3.03;;;1.98;;
76121;SDS011;70471;53.200;6.080;2024-01-30T05:54:27;1.65;;;1.55;;
76121;SDS011;70471;53.200;6.080;2024-01-30T05:59:21;1.60;;;1.50;;
76121;SDS011;70471;53.200;6.080;2024-01-30T06:04:13;2.10;;;1.58;;
76121;SDS011;70471;53.200;6.080;2024-01-30T06:13:58;2.10;;;1.70;;
76121;SDS011;70471;53.200;6.080;2024-01-30T06:18:52;2.38;;;1.90;;
76121;SDS011;70471;53.200;6.080;2024-01-30T06:23:43;2.55;;;1.70;;
76121;SDS011;70471;53.200;6.080;2024-01-30T06:28:35;2.00;;;1.60;;
76121;SDS011;70471;53.200;6.080;2024-01-30T06:33:27;2.00;;;1.50;;
76121;SDS011;70471;53.200;6.080;2024-01-30T06:38:21;2.95;;;1.95;;
76121;SDS011;70471;53.200;6.080;2024-01-30T06:43:13;3.13;;;1.70;;
76121;SDS011;70471;53.200;6.080;2024-01-30T06:48:05;2.75;;;1.90;;
76121;SDS011;70471;53.200;6.080;2024-01-30T06:52:58;2.22;;;1.75;;
76121;SDS011;70471;53.200;6.080;2024-01-30T06:57:51;2.35;;;1.83;;
76121;SDS011;70471;53.200;6.080;2024-01-30T07:02:43;2.40;;;1.95;;
76121;SDS011;70471;53.200;6.080;2024-01-30T07:07:35;2.40;;;1.83;;
76121;SDS011;70471;53.200;6.080;2024-01-30T07:12:27;3.85;;;2.00;;
76121;SDS011;70471;53.200;6.080;2024-01-30T07:17:20;2.05;;;1.58;;
76121;SDS011;70471;53.200;6.080;2024-01-30T07:22:12;3.00;;;1.80;;
76121;SDS011;70471;53.200;6.080;2024-01-30T07:27:04;2.88;;;2.10;;
76121;SDS011;70471;53.200;6.080;2024-01-30T07:31:56;2.20;;;1.70;;
76121;SDS011;70471;53.200;6.080;2024-01-30T07:36:49;2.58;;;1.35;;
76121;SDS011;70471;53.200;6.080;2024-01-30T07:41:41;2.40;;;1.73;;
76121;SDS011;70471;53.200;6.080;2024-01-30T07:46:34;5.25;;;1.70;;
76121;SDS011;70471;53.200;6.080;2024-01-30T07:51:25;2.88;;;1.40;;
76121;SDS011;70471;53.200;6.080;2024-01-30T07:56:19;1.58;;;1.48;;
76121;SDS011;70471;53.200;6.080;2024-01-30T08:01:11;2.00;;;1.80;;
76121;SDS011;70471;53.200;6.080;2024-01-30T08:06:03;1.92;;;1.50;;
76121;SDS011;70471;53.200;6.080;2024-01-30T08:10:56;1.35;;;1.20;;
76121;SDS011;70471;53.200;6.080;2024-01-30T08:15:50;2.28;;;1.55;;
76121;SDS011;70471;53.200;6.080;2024-01-30T08:20:42;1.95;;;1.55;;
76121;SDS011;70471;53.200;6.080;2024-01-30T08:25:33;1.60;;;1.50;;
76121;SDS011;70471;53.200;6.080;2024-01-30T08:30:26;1.80;;;1.60;;
76121;SDS011;70471;53.200;6.080;2024-01-30T08:35:19;2.25;;;1.55;;
76121;SDS011;70471;53.200;6.080;2024-01-30T08:40:11;1.65;;;1.42;;
76121;SDS011;70471;53.200;6.080;2024-01-30T08:45:04;2.75;;;1.55;;
76121;SDS011;70471;53.200;6.080;2024-01-30T08:49:57;2.03;;;1.35;;
76121;SDS011;70471;53.200;6.080;2024-01-30T08:54:50;2.08;;;1.50;;
76121;SDS011;70471;53.200;6.080;2024-01-30T08:59:42;1.50;;;1.40;;
76121;SDS011;70471;53.200;6.080;2024-01-30T09:04:35;1.45;;;1.23;;
76121;SDS011;70471;53.200;6.080;2024-01-30T09:09:27;1.80;;;1.52;;
76121;SDS011;70471;53.200;6.080;2024-01-30T09:14:20;1.30;;;1.10;;
76121;SDS011;70471;53.200;6.080;2024-01-30T09:19:12;2.30;;;1.60;;
76121;SDS011;70471;53.200;6.080;2024-01-30T09:24:04;1.42;;;1.30;;
76121;SDS011;70471;53.200;6.080;2024-01-30T09:28:56;2.78;;;1.52;;
76121;SDS011;70471;53.200;6.080;2024-01-30T09:38:41;1.45;;;1.30;;
76121;SDS011;70471;53.200;6.080;2024-01-30T09:43:33;1.90;;;1.40;;
76121;SDS011;70471;53.200;6.080;2024-01-30T09:48:25;2.47;;;1.55;;
76121;SDS011;70471;53.200;6.080;2024-01-30T09:53:19;1.45;;;1.33;;
76121;SDS011;70471;53.200;6.080;2024-01-30T09:58:13;2.90;;;1.45;;
76121;SDS011;70471;53.200;6.080;2024-01-30T10:03:05;2.22;;;1.33;;
76121;SDS011;70471;53.200;6.080;2024-01-30T10:07:57;2.25;;;1.50;;
76121;SDS011;70471;53.200;6.080;2024-01-30T10:12:50;1.67;;;1.25;;
76121;SDS011;70471;53.200;6.080;2024-01-30T10:17:43;2.28;;;1.20;;
76121;SDS011;70471;53.200;6.080;2024-01-30T10:22:35;5.93;;;1.50;;
76121;SDS011;70471;53.200;6.080;2024-01-30T10:27:27;2.55;;;1.48;;
76121;SDS011;70471;53.200;6.080;2024-01-30T10:32:21;1.98;;;1.48;;
76121;SDS011;70471;53.200;6.080;2024-01-30T10:37:13;1.60;;;1.42;;
76121;SDS011;70471;53.200;6.080;2024-01-30T10:42:07;1.65;;;1.23;;
76121;SDS011;70471;53.200;6.080;2024-01-30T10:47:03;1.98;;;1.08;;
76121;SDS011;70471;53.200;6.080;2024-01-30T10:52:01;1.52;;;1.30;;
76121;SDS011;70471;53.200;6.080;2024-01-30T10:56:56;1.58;;;1.40;;
76121;SDS011;70471;53.200;6.080;2024-01-30T11:06:45;1.70;;;1.08;;
76121;SDS011;70471;53.200;6.080;2024-01-30T11:11:51;3.63;;;1.52;;
76121;SDS011;70471;53.200;6.080;2024-01-30T11:16:50;1.58;;;0.90;;
76121;SDS011;70471;53.200;6.080;2024-01-30T11:21:42;1.13;;;0.90;;
76121;SDS011;70471;53.200;6.080;2024-01-30T11:26:34;2.25;;;0.98;;
76121;SDS011;70471;53.200;6.080;2024-01-30T11:31:27;1.77;;;0.90;;
76121;SDS011;70471;53.200;6.080;2024-01-30T11:36:20;1.85;;;0.80;;
76121;SDS011;70471;53.200;6.080;2024-01-30T11:41:17;1.63;;;0.80;;
76121;SDS011;70471;53.200;6.080;2024-01-30T11:46:09;0.80;;;0.70;;
76121;SDS011;70471;53.200;6.080;2024-01-30T11:51:02;1.42;;;0.75;;
76121;SDS011;70471;53.200;6.080;2024-01-30T11:55:54;2.15;;;0.90;;
76121;SDS011;70471;53.200;6.080;2024-01-30T12:00:52;0.80;;;0.60;;
76121;SDS011;70471;53.200;6.080;2024-01-30T12:05:44;1.73;;;0.60;;
76121;SDS011;70471;53.200;6.080;2024-01-30T12:15:28;1.67;;;0.73;;
76121;SDS011;70471;53.200;6.080;2024-01-30T12:20:20;0.60;;;0.60;;
76121;SDS011;70471;53.200;6.080;2024-01-30T12:25:13;1.58;;;0.85;;
76121;SDS011;70471;53.200;6.080;2024-01-30T12:30:08;0.73;;;0.35;;
76121;SDS011;70471;53.200;6.080;2024-01-30T12:35:01;0.98;;;0.70;;
76121;SDS011;70471;53.200;6.080;2024-01-30T12:39:53;1.25;;;0.40;;
76121;SDS011;70471;53.200;6.080;2024-01-30T12:44:45;2.53;;;0.52;;
76121;SDS011;70471;53.200;6.080;2024-01-30T12:49:38;1.38;;;0.45;;
76121;SDS011;70471;53.200;6.080;2024-01-30T12:54:30;1.42;;;0.40;;
76121;SDS011;70471;53.200;6.080;2024-01-30T12:59:21;0.85;;;0.63;;
76121;SDS011;70471;53.200;6.080;2024-01-30T13:09:07;1.33;;;0.50;;
76121;SDS011;70471;53.200;6.080;2024-01-30T13:13:59;1.10;;;0.60;;
76121;SDS011;70471;53.200;6.080;2024-01-30T13:18:52;0.93;;;0.20;;
76121;SDS011;70471;53.200;6.080;2024-01-30T13:23:45;1.98;;;0.65;;
76121;SDS011;70471;53.200;6.080;2024-01-30T13:28:39;1.67;;;0.20;;
76121;SDS011;70471;53.200;6.080;2024-01-30T13:33:31;0.60;;;0.30;;
76121;SDS011;70471;53.200;6.080;2024-01-30T13:38:23;0.50;;;0.20;;
76121;SDS011;70471;53.200;6.080;2024-01-30T13:48:07;0.30;;;0.20;;
76121;SDS011;70471;53.200;6.080;2024-01-30T13:52:59;0.75;;;0.20;;
76121;SDS011;70471;53.200;6.080;2024-01-30T14:02:42;0.90;;;0.70;;
76121;SDS011;70471;53.200;6.080;2024-01-30T14:07:35;0.73;;;0.20;;
76121;SDS011;70471;53.200;6.080;2024-01-30T14:12:27;0.30;;;0.10;;
76121;SDS011;70471;53.200;6.080;2024-01-30T14:17:20;0.28;;;0.10;;
76121;SDS011;70471;53.200;6.080;2024-01-30T14:22:12;0.68;;;0.20;;
76121;SDS011;70471;53.200;6.080;2024-01-30T14:27:05;0.90;;;0.20;;
76121;SDS011;70471;53.200;6.080;2024-01-30T14:31:58;0.63;;;0.28;;
76121;SDS011;70471;53.200;6.080;2024-01-30T14:36:50;0.25;;;0.00;;
76121;SDS011;70471;53.200;6.080;2024-01-30T14:41:42;2.10;;;0.20;;
76121;SDS011;70471;53.200;6.080;2024-01-30T14:46:35;1.15;;;0.40;;
76121;SDS011;70471;53.200;6.080;2024-01-30T14:51:27;1.10;;;0.30;;
76121;SDS011;70471;53.200;6.080;2024-01-30T14:56:19;7.47;;;0.57;;
76121;SDS011;70471;53.200;6.080;2024-01-30T15:01:11;0.95;;;0.30;;
76121;SDS011;70471;53.200;6.080;2024-01-30T15:06:05;0.98;;;0.30;;
76121;SDS011;70471;53.200;6.080;2024-01-30T15:10:58;1.08;;;0.30;;
76121;SDS011;70471;53.200;6.080;2024-01-30T15:15:50;1.48;;;0.25;;
76121;SDS011;70471;53.200;6.080;2024-01-30T15:20:42;1.00;;;0.20;;
76121;SDS011;70471;53.200;6.080;2024-01-30T15:25:35;0.75;;;0.30;;
76121;SDS011;70471;53.200;6.080;2024-01-30T15:30:28;0.30;;;0.10;;
76121;SDS011;70471;53.200;6.080;2024-01-30T15:35:19;0.15;;;0.10;;
76121;SDS011;70471;53.200;6.080;2024-01-30T15:40:11;0.63;;;0.10;;
76121;SDS011;70471;53.200;6.080;2024-01-30T15:45:05;0.20;;;0.20;;
76121;SDS011;70471;53.200;6.080;2024-01-30T15:49:57;0.13;;;0.13;;
76121;SDS011;70471;53.200;6.080;2024-01-30T15:59:40;0.47;;;0.20;;
76121;SDS011;70471;53.200;6.080;2024-01-30T16:04:32;0.40;;;0.13;;
76121;SDS011;70471;53.200;6.080;2024-01-30T16:09:24;0.40;;;0.30;;
76121;SDS011;70471;53.200;6.080;2024-01-30T16:14:15;0.65;;;0.25;;
76121;SDS011;70471;53.200;6.080;2024-01-30T16:24:00;0.90;;;0.20;;
76121;SDS011;70471;53.200;6.080;2024-01-30T16:28:51;1.10;;;0.40;;
76121;SDS011;70471;53.200;6.080;2024-01-30T16:38:34;0.88;;;0.17;;
76121;SDS011;70471;53.200;6.080;2024-01-30T16:43:28;0.85;;;0.40;;
76121;SDS011;70471;53.200;6.080;2024-01-30T16:48:20;1.40;;;0.40;;
76121;SDS011;70471;53.200;6.080;2024-01-30T16:53:12;0.25;;;0.10;;
76121;SDS011;70471;53.200;6.080;2024-01-30T16:58:04;0.35;;;0.20;;
76121;SDS011;70471;53.200;6.080;2024-01-30T17:02:59;1.02;;;0.28;;
76121;SDS011;70471;53.200;6.080;2024-01-30T17:07:51;0.98;;;0.38;;
76121;SDS011;70471;53.200;6.080;2024-01-30T17:12:44;0.47;;;0.10;;
76121;SDS011;70471;53.200;6.080;2024-01-30T17:17:35;3.40;;;0.38;;
76121;SDS011;70471;53.200;6.080;2024-01-30T17:22:28;0.55;;;0.20;;
76121;SDS011;70471;53.200;6.080;2024-01-30T17:27:20;0.55;;;0.50;;
76121;SDS011;70471;53.200;6.080;2024-01-30T17:37:03;0.50;;;0.25;;
76121;SDS011;70471;53.200;6.080;2024-01-30T17:41:56;1.48;;;0.40;;
76121;SDS011;70471;53.200;6.080;2024-01-30T17:46:48;1.38;;;0.43;;
76121;SDS011;70471;53.200;6.080;2024-01-30T17:51:41;1.60;;;0.35;;
76121;SDS011;70471;53.200;6.080;2024-01-30T18:01:25;1.08;;;0.15;;
76121;SDS011;70471;53.200;6.080;2024-01-30T18:06:17;1.13;;;0.22;;
76121;SDS011;70471;53.200;6.080;2024-01-30T18:11:08;1.20;;;0.20;;
76121;SDS011;70471;53.200;6.080;2024-01-30T18:16:00;1.02;;;0.10;;
76121;SDS011;70471;53.200;6.080;2024-01-30T18:25:44;0.90;;;0.20;;
76121;SDS011;70471;53.200;6.080;2024-01-30T18:30:36;0.75;;;0.17;;
76121;SDS011;70471;53.200;6.080;2024-01-30T18:40:20;1.23;;;0.32;;
76121;SDS011;70471;53.200;6.080;2024-01-30T18:45:12;0.95;;;0.20;;
76121;SDS011;70471;53.200;6.080;2024-01-30T18:50:04;1.33;;;0.52;;
76121;SDS011;70471;53.200;6.080;2024-01-30T18:54:56;1.52;;;0.30;;
76121;SDS011;70471;53.200;6.080;2024-01-30T19:04:40;0.28;;;0.10;;
76121;SDS011;70471;53.200;6.080;2024-01-30T19:09:32;1.58;;;0.47;;
76121;SDS011;70471;53.200;6.080;2024-01-30T19:14:23;2.35;;;0.40;;
76121;SDS011;70471;53.200;6.080;2024-01-30T19:19:16;2.17;;;0.50;;
76121;SDS011;70471;53.200;6.080;2024-01-30T19:24:08;0.80;;;0.30;;
76121;SDS011;70471;53.200;6.080;2024-01-30T19:29:00;2.70;;;0.85;;
76121;SDS011;70471;53.200;6.080;2024-01-30T19:38:44;1.90;;;0.40;;
76121;SDS011;70471;53.200;6.080;2024-01-30T19:43:36;1.42;;;0.30;;
76121;SDS011;70471;53.200;6.080;2024-01-30T19:48:28;1.95;;;0.28;;
76121;SDS011;70471;53.200;6.080;2024-01-30T19:53:20;2.05;;;0.40;;
76121;SDS011;70471;53.200;6.080;2024-01-30T19:58:13;1.75;;;0.30;;
76121;SDS011;70471;53.200;6.080;2024-01-30T20:03:05;4.00;;;0.28;;
76121;SDS011;70471;53.200;6.080;2024-01-30T20:07:56;1.45;;;0.30;;
76121;SDS011;70471;53.200;6.080;2024-01-30T20:17:41;0.70;;;0.30;;
76121;SDS011;70471;53.200;6.080;2024-01-30T20:22:33;1.45;;;0.25;;
76121;SDS011;70471;53.200;6.080;2024-01-30T20:27:25;0.68;;;0.10;;
76121;SDS011;70471;53.200;6.080;2024-01-30T20:32:17;1.15;;;0.35;;
76121;SDS011;70471;53.200;6.080;2024-01-30T20:37:10;1.95;;;0.30;;
76121;SDS011;70471;53.200;6.080;2024-01-30T20:42:02;2.03;;;0.38;;
76121;SDS011;70471;53.200;6.080;2024-01-30T20:46:55;1.08;;;0.32;;
76121;SDS011;70471;53.200;6.080;2024-01-30T20:56:39;0.68;;;0.30;;
76121;SDS011;70471;53.200;6.080;2024-01-30T21:01:30;0.65;;;0.25;;
76121;SDS011;70471;53.200;6.080;2024-01-30T21:11:13;0.32;;;0.10;;
76121;SDS011;70471;53.200;6.080;2024-01-30T21:20:57;1.67;;;0.30;;
76121;SDS011;70471;53.200;6.080;2024-01-30T21:25:49;0.40;;;0.20;;
76121;SDS011;70471;53.200;6.080;2024-01-30T21:30:40;0.80;;;0.20;;
76121;SDS011;70471;53.200;6.080;2024-01-30T21:35:34;0.28;;;0.08;;
76121;SDS011;70471;53.200;6.080;2024-01-30T21:40:25;0.43;;;0.13;;
76121;SDS011;70471;53.200;6.080;2024-01-30T21:45:17;0.20;;;0.00;;
76121;SDS011;70471;53.200;6.080;2024-01-30T21:50:10;0.38;;;0.08;;
76121;SDS011;70471;53.200;6.080;2024-01-30T21:59:55;0.35;;;0.20;;
76121;SDS011;70471;53.200;6.080;2024-01-30T22:09:37;0.47;;;0.13;;
76121;SDS011;70471;53.200;6.080;2024-01-30T22:19:21;1.23;;;0.10;;
76121;SDS011;70471;53.200;6.080;2024-01-30T22:24:13;0.70;;;0.10;;
76121;SDS011;70471;53.200;6.080;2024-01-30T22:29:05;0.85;;;0.10;;
76121;SDS011;70471;53.200;6.080;2024-01-30T22:33:57;0.45;;;0.10;;
76121;SDS011;70471;53.200;6.080;2024-01-30T22:38:49;0.40;;;0.20;;
76121;SDS011;70471;53.200;6.080;2024-01-30T22:43:41;1.17;;;0.25;;
76121;SDS011;70471;53.200;6.080;2024-01-30T22:53:25;0.17;;;0.03;;
76121;SDS011;70471;53.200;6.080;2024-01-30T22:58:16;0.08;;;0.00;;
76121;SDS011;70471;53.200;6.080;2024-01-30T23:07:59;1.25;;;0.30;;
76121;SDS011;70471;53.200;6.080;2024-01-30T23:12:52;0.88;;;0.17;;
76121;SDS011;70471;53.200;6.080;2024-01-30T23:17:43;0.17;;;0.10;;
76121;SDS011;70471;53.200;6.080;2024-01-30T23:22:35;0.52;;;0.10;;
76121;SDS011;70471;53.200;6.080;2024-01-30T23:27:27;0.88;;;0.08;;
76121;SDS011;70471;53.200;6.080;2024-01-30T23:32:20;0.35;;;0.10;;
76121;SDS011;70471;53.200;6.080;2024-01-30T23:37:11;0.68;;;0.30;;
76121;SDS011;70471;53.200;6.080;2024-01-30T23:42:03;0.38;;;0.10;;
76121;SDS011;70471;53.200;6.080;2024-01-30T23:46:55;0.15;;;0.05;;
76121;SDS011;70471;53.200;6.080;2024-01-30T23:51:47;0.98;;;0.13;;
76121;SDS011;70471;53.200;6.080;2024-01-30T23:56:40;0.03;;;0.00;;
